Time;durP1;ratioP1;P1;durP2;ratioP2;P2;SDS_P1;SDS_P2;PMS_P1;PMS_P2;Temp;Humidity;BMP_temperature;BMP_pressure;BME280_temperature;BME280_humidity;BME280_pressure;Samples;Min_cycle;Max_cycle;Signal;HPM_P1;HPM_P2
2021/07/20 00:02:29;;;;;;;19.38;10.88;;;15.60;75.80;;;;;;5034711;28;20025;-36
2021/07/20 00:04:56;;;;;;;17.15;10.85;;;15.60;75.90;;;;;;5033488;28;20049;-36
2021/07/20 00:07:22;;;;;;;15.73;9.48;;;15.60;75.70;;;;;;5033179;28;20026;-36
2021/07/20 00:09:48;;;;;;;18.95;10.77;;;15.60;75.80;;;;;;5034614;28;20036;-36
2021/07/20 00:12:13;;;;;;;19.27;11.15;;;15.50;76.10;;;;;;5034490;28;20018;-36
2021/07/20 00:14:39;;;;;;;19.65;10.60;;;15.50;76.00;;;;;;5034506;28;20018;-36
2021/07/20 00:17:05;;;;;;;25.30;12.63;;;15.60;75.80;;;;;;5034514;28;20083;-36
2021/07/20 00:19:31;;;;;;;24.25;11.55;;;15.40;76.30;;;;;;5034500;28;20026;-36
2021/07/20 00:21:57;;;;;;;22.73;11.65;;;15.30;76.50;;;;;;5034127;28;20026;-36
2021/07/20 00:24:23;;;;;;;18.48;10.25;;;15.30;76.90;;;;;;5032771;28;20047;-36
2021/07/20 00:26:48;;;;;;;18.33;10.80;;;15.30;76.90;;;;;;5033805;28;20497;-36
2021/07/20 00:29:14;;;;;;;22.27;12.35;;;15.30;77.00;;;;;;5034178;28;20093;-37
2021/07/20 00:31:40;;;;;;;17.48;10.70;;;15.30;77.10;;;;;;5034362;28;20104;-41
2021/07/20 00:34:06;;;;;;;21.92;12.18;;;15.20;77.40;;;;;;5034461;28;20028;-36
2021/07/20 00:36:32;;;;;;;20.48;11.88;;;15.20;77.60;;;;;;5034009;28;20104;-36
2021/07/20 00:38:58;;;;;;;16.00;10.65;;;15.20;77.70;;;;;;5033999;28;20025;-36
2021/07/20 00:41:24;;;;;;;20.20;11.50;;;15.20;77.80;;;;;;5033913;28;20025;-36
2021/07/20 00:43:49;;;;;;;20.45;11.77;;;15.10;77.90;;;;;;5033859;28;20087;-36
2021/07/20 00:46:15;;;;;;;19.88;11.43;;;15.00;78.50;;;;;;5034017;28;20476;-36
2021/07/20 00:48:40;;;;;;;23.15;11.60;;;15.10;78.30;;;;;;5033757;28;20037;-36
2021/07/20 00:51:06;;;;;;;19.05;11.27;;;15.00;78.40;;;;;;5033870;28;20104;-36
2021/07/20 00:53:32;;;;;;;20.80;11.02;;;15.00;78.40;;;;;;5033860;28;20021;-36
2021/07/20 00:55:57;;;;;;;23.58;11.50;;;15.10;78.20;;;;;;5034255;28;20059;-36
2021/07/20 00:58:24;;;;;;;24.83;11.82;;;15.10;78.30;;;;;;5032340;28;20083;-36
2021/07/20 01:00:52;;;;;;;22.50;12.45;;;15.00;78.60;;;;;;5033644;28;20083;-36
2021/07/20 01:03:18;;;;;;;21.42;11.90;;;15.00;79.00;;;;;;5033366;28;20029;-36
2021/07/20 01:05:44;;;;;;;19.65;10.75;;;15.10;78.70;;;;;;5033522;28;20164;-36
2021/07/20 01:08:10;;;;;;;33.13;14.35;;;15.00;78.60;;;;;;5033216;28;20036;-35
2021/07/20 01:10:37;;;;;;;21.73;11.85;;;15.10;78.50;;;;;;5033664;28;20029;-36
2021/07/20 01:13:04;;;;;;;22.02;11.88;;;15.10;78.30;;;;;;5032974;28;20017;-36
2021/07/20 01:15:31;;;;;;;20.20;11.88;;;15.10;78.60;;;;;;5032822;28;20037;-36
2021/07/20 01:17:59;;;;;;;22.60;12.25;;;15.10;78.50;;;;;;5033091;28;20029;-36
2021/07/20 01:20:27;;;;;;;25.02;11.18;;;15.00;79.00;;;;;;5033026;28;20029;-36
2021/07/20 01:23:07;;;;;;;20.20;11.40;;;15.00;78.80;;;;;;5033737;28;20057;-36
2021/07/20 01:25:33;;;;;;;23.58;11.45;;;14.90;79.10;;;;;;5033685;28;20067;-36
2021/07/20 01:28:04;;;;;;;20.58;11.07;;;14.90;79.40;;;;;;5032960;28;20052;-36
2021/07/20 01:30:31;;;;;;;21.58;12.30;;;14.80;79.30;;;;;;5033411;28;20064;-36
2021/07/20 01:32:58;;;;;;;20.95;12.18;;;14.90;79.10;;;;;;5033387;28;20496;-36
2021/07/20 01:35:25;;;;;;;24.98;12.43;;;14.90;79.20;;;;;;5033387;28;20389;-37
2021/07/20 01:37:55;;;;;;;20.48;11.13;;;14.80;79.70;;;;;;5033372;28;20453;-37
2021/07/20 01:40:23;;;;;;;19.77;11.20;;;14.80;79.60;;;;;;5033619;28;20026;-36
2021/07/20 01:42:49;;;;;;;26.67;12.52;;;14.70;80.00;;;;;;5033142;28;20465;-36
2021/07/20 01:45:15;;;;;;;19.48;12.00;;;14.60;80.40;;;;;;5033152;28;20025;-36
2021/07/20 01:47:46;;;;;;;22.55;12.05;;;14.50;80.30;;;;;;5033549;28;20022;-37
2021/07/20 01:50:17;;;;;;;22.15;11.40;;;14.70;80.10;;;;;;5033217;28;20097;-37
2021/07/20 01:52:44;;;;;;;23.77;12.77;;;14.70;80.20;;;;;;5033062;28;20048;-37
2021/07/20 01:55:11;;;;;;;23.27;11.85;;;14.60;80.40;;;;;;5033009;28;20025;-37
2021/07/20 01:57:38;;;;;;;21.77;12.18;;;14.60;80.20;;;;;;5033278;28;20029;-36
2021/07/20 02:00:15;;;;;;;18.92;11.18;;;14.80;79.50;;;;;;5032987;28;20037;-36
2021/07/20 02:03:01;;;;;;;22.40;11.80;;;14.80;79.50;;;;;;5033229;28;20025;-37
2021/07/20 02:08:26;;;;;;;20.58;11.77;;;14.70;79.80;;;;;;5033318;28;20032;-37
2021/07/20 02:10:54;;;;;;;19.67;10.27;;;14.70;80.00;;;;;;5033639;28;20026;-36
2021/07/20 02:13:22;;;;;;;22.13;11.70;;;14.70;79.60;;;;;;5031936;28;20040;-37
2021/07/20 02:15:49;;;;;;;23.92;12.98;;;14.80;79.20;;;;;;5033081;28;20493;-37
2021/07/20 02:18:15;;;;;;;23.08;11.98;;;14.80;78.90;;;;;;5033684;28;20033;-36
2021/07/20 02:20:43;;;;;;;21.17;12.15;;;14.80;79.10;;;;;;5032890;28;20030;-36
2021/07/20 02:23:09;;;;;;;22.52;11.50;;;14.70;79.20;;;;;;5032837;28;20120;-36
2021/07/20 02:25:37;;;;;;;22.15;12.10;;;14.70;79.50;;;;;;5031798;28;20030;-36
2021/07/20 02:28:05;;;;;;;20.17;11.90;;;14.60;79.70;;;;;;5037006;28;20049;-36
2021/07/20 02:30:32;;;;;;;22.05;11.13;;;14.70;79.40;;;;;;5036443;28;20032;-36
2021/07/20 02:33:01;;;;;;;20.45;11.30;;;14.50;79.50;;;;;;5035848;28;20049;-36
2021/07/20 02:35:27;;;;;;;26.13;12.23;;;14.50;79.60;;;;;;5037269;28;20021;-38
2021/07/20 02:37:54;;;;;;;25.17;11.70;;;14.50;79.50;;;;;;5036367;28;20120;-36
2021/07/20 02:40:22;;;;;;;24.42;12.13;;;14.50;79.60;;;;;;5036267;28;20036;-36
2021/07/20 02:42:51;;;;;;;20.38;11.73;;;14.50;79.60;;;;;;5036158;28;20166;-36
2021/07/20 02:45:17;;;;;;;25.40;13.57;;;14.30;80.10;;;;;;5036417;28;20029;-36
2021/07/20 02:47:44;;;;;;;16.02;11.70;;;14.30;80.60;;;;;;5036426;28;20040;-36
2021/07/20 02:50:12;;;;;;;25.58;12.85;;;14.20;80.70;;;;;;5037028;28;20026;-36
2021/07/20 02:52:42;;;;;;;20.50;12.00;;;14.20;80.70;;;;;;5036312;28;20126;-36
2021/07/20 02:55:09;;;;;;;23.77;12.70;;;14.30;80.20;;;;;;5035957;28;20083;-36
2021/07/20 02:57:36;;;;;;;25.55;11.25;;;14.30;80.10;;;;;;5035655;28;20112;-36
2021/07/20 03:00:07;;;;;;;22.33;11.73;;;14.30;80.30;;;;;;5034942;28;20035;-36
2021/07/20 03:02:36;;;;;;;;;;;14.30;80.50;;;;;;5036118;28;20060;-36
2021/07/20 03:05:04;;;;;;;23.33;12.30;;;14.20;80.70;;;;;;5035955;28;19955;-36
2021/07/20 03:07:31;;;;;;;25.25;12.45;;;14.40;80.10;;;;;;5035909;28;20056;-36
2021/07/20 03:09:59;;;;;;;26.98;13.13;;;14.40;80.10;;;;;;5035592;28;20022;-36
2021/07/20 03:12:27;;;;;;;23.20;12.35;;;14.30;80.60;;;;;;5035627;28;20057;-36
2021/07/20 03:14:54;;;;;;;20.35;13.27;;;14.20;80.70;;;;;;5035687;28;20148;-36
2021/07/20 03:17:23;;;;;;;25.83;11.07;;;14.10;81.10;;;;;;5035520;28;20083;-36
2021/07/20 03:19:50;;;;;;;21.15;11.63;;;14.20;81.10;;;;;;5035355;28;20052;-36
2021/07/20 03:22:17;;;;;;;21.67;11.65;;;14.20;80.80;;;;;;5035395;28;20026;-36
2021/07/20 03:24:45;;;;;;;23.50;12.48;;;14.20;80.80;;;;;;5035391;28;20037;-36
2021/07/20 03:27:12;;;;;;;23.40;12.20;;;14.30;80.70;;;;;;5035747;28;20073;-37
2021/07/20 03:29:42;;;;;;;21.63;12.48;;;14.20;80.90;;;;;;5035664;28;20116;-36
2021/07/20 03:32:15;;;;;;;;;;;14.20;80.70;;;;;;5035652;28;20029;-36
2021/07/20 03:34:42;;;;;;;23.02;11.85;;;14.30;80.80;;;;;;5035251;28;20029;-36
2021/07/20 03:37:08;;;;;;;24.58;13.05;;;14.20;80.70;;;;;;5034731;28;20075;-36
2021/07/20 03:39:36;;;;;;;28.50;13.57;;;14.20;81.00;;;;;;5033789;28;20018;-36
2021/07/20 03:42:02;;;;;;;22.67;12.95;;;14.30;80.90;;;;;;5035007;28;20018;-36
2021/07/20 03:44:29;;;;;;;26.98;13.20;;;14.40;80.50;;;;;;5033808;28;20409;-36
2021/07/20 03:46:57;;;;;;;28.25;13.30;;;14.30;80.40;;;;;;5035406;28;20053;-36
2021/07/20 03:49:26;;;;;;;20.50;12.05;;;14.30;80.60;;;;;;5034878;28;20028;-36
2021/07/20 03:51:54;;;;;;;26.40;12.50;;;14.30;80.70;;;;;;5035196;28;20033;-36
2021/07/20 03:54:20;;;;;;;24.05;11.95;;;14.30;80.20;;;;;;5034942;28;20068;-36
2021/07/20 03:56:48;;;;;;;26.38;13.32;;;14.30;80.50;;;;;;5035136;28;20029;-36
2021/07/20 03:59:14;;;;;;;22.27;10.95;;;14.30;80.70;;;;;;5034804;28;20032;-36
2021/07/20 04:01:40;;;;;;;22.08;12.02;;;14.30;80.70;;;;;;5035016;28;20033;-37
2021/07/20 04:04:13;;;;;;;21.98;12.32;;;14.40;80.60;;;;;;5034651;28;20029;-36
2021/07/20 04:06:40;;;;;;;24.52;13.50;;;14.30;80.60;;;;;;5034707;28;20029;-41
2021/07/20 04:09:08;;;;;;;22.83;12.80;;;14.40;80.40;;;;;;5034254;28;20083;-36
2021/07/20 04:11:35;;;;;;;25.83;13.10;;;14.40;80.30;;;;;;5034449;28;20019;-38
2021/07/20 04:14:02;;;;;;;25.92;12.63;;;14.30;80.60;;;;;;5034074;28;20041;-36
2021/07/20 04:16:29;;;;;;;22.95;13.00;;;14.40;80.50;;;;;;5034993;28;20556;-36
2021/07/20 04:18:55;;;;;;;18.17;11.05;;;14.30;80.70;;;;;;5034383;28;20056;-37
2021/07/20 04:21:21;;;;;;;26.17;13.40;;;14.30;81.00;;;;;;5034002;28;20357;-37
2021/07/20 04:23:49;;;;;;;23.33;12.45;;;14.20;81.30;;;;;;5034370;28;20389;-37
2021/07/20 04:26:15;;;;;;;23.00;11.93;;;14.40;80.70;;;;;;5033911;28;20088;-37
2021/07/20 04:28:41;;;;;;;23.40;13.15;;;14.50;80.20;;;;;;5034116;28;20021;-37
2021/07/20 04:31:08;;;;;;;24.27;12.57;;;14.40;80.30;;;;;;5034231;28;20033;-37
2021/07/20 04:33:35;;;;;;;26.30;12.93;;;14.40;80.60;;;;;;5034244;28;20013;-37
2021/07/20 04:36:02;;;;;;;23.77;13.30;;;14.60;80.00;;;;;;5033782;28;20025;-37
2021/07/20 04:38:32;;;;;;;22.58;11.60;;;14.60;80.00;;;;;;5034113;28;20420;-37
2021/07/20 04:40:59;;;;;;;26.17;13.50;;;14.60;80.00;;;;;;5033699;28;20032;-37
2021/07/20 04:43:25;;;;;;;28.27;12.55;;;14.70;79.80;;;;;;5033849;28;20025;-37
2021/07/20 04:45:54;;;;;;;27.63;13.25;;;14.80;79.40;;;;;;5033731;28;20025;-37
2021/07/20 04:48:20;;;;;;;22.25;12.85;;;14.80;79.40;;;;;;5032861;28;20034;-37
2021/07/20 04:50:47;;;;;;;22.88;11.85;;;14.70;79.70;;;;;;5033806;28;20061;-37
2021/07/20 04:53:14;;;;;;;22.80;12.23;;;14.80;79.80;;;;;;5033800;28;20026;-37
2021/07/20 04:55:40;;;;;;;21.08;11.65;;;14.70;79.90;;;;;;5032158;28;20036;-38
2021/07/20 04:58:07;;;;;;;23.90;13.35;;;14.70;79.90;;;;;;5033927;28;20526;-37
2021/07/20 05:00:36;;;;;;;28.17;12.65;;;14.60;80.30;;;;;;5033364;28;20025;-37
2021/07/20 05:03:04;;;;;;;23.75;14.07;;;14.60;80.20;;;;;;5033536;28;20033;-36
2021/07/20 05:05:32;;;;;;;24.30;12.20;;;14.70;79.70;;;;;;5033447;28;20167;-36
2021/07/20 05:07:59;;;;;;;19.70;10.88;;;14.60;80.10;;;;;;5033475;28;20040;-36
2021/07/20 05:10:26;;;;;;;21.38;11.85;;;14.70;80.10;;;;;;5033615;28;20044;-37
2021/07/20 05:12:52;;;;;;;24.00;13.82;;;14.80;79.90;;;;;;5034351;28;20025;-42
2021/07/20 05:15:20;;;;;;;23.73;12.32;;;14.70;79.90;;;;;;5033994;28;20044;-39
2021/07/20 05:17:47;;;;;;;25.65;12.23;;;14.80;80.10;;;;;;5034233;28;20088;-37
2021/07/20 05:20:17;;;;;;;20.85;11.68;;;14.80;79.70;;;;;;5034006;28;20041;-37
2021/07/20 05:22:44;;;;;;;19.45;11.05;;;15.00;79.40;;;;;;5033946;28;20037;-37
2021/07/20 05:25:12;;;;;;;31.23;13.15;;;15.20;78.60;;;;;;5033540;28;20497;-37
2021/07/20 05:27:43;;;;;;;20.13;11.27;;;15.00;79.10;;;;;;5032782;28;20045;-37
2021/07/20 05:30:09;;;;;;;22.08;12.00;;;15.00;79.50;;;;;;5033189;28;20371;-36
2021/07/20 05:32:39;;;;;;;19.65;11.02;;;15.10;79.00;;;;;;5032869;28;20022;-37
2021/07/20 05:35:07;;;;;;;25.75;11.70;;;15.10;79.00;;;;;;5032691;28;20021;-39
2021/07/20 05:37:35;;;;;;;28.45;12.13;;;15.30;78.40;;;;;;5032766;28;20502;-37
2021/07/20 05:40:01;;;;;;;19.25;11.00;;;15.30;78.30;;;;;;5031245;28;20180;-37
2021/07/20 05:42:28;;;;;;;18.98;9.80;;;15.50;77.50;;;;;;5032784;28;20026;-37
2021/07/20 05:44:55;;;;;;;21.00;10.90;;;15.70;77.00;;;;;;5032940;28;20041;-37
2021/07/20 05:47:22;;;;;;;22.15;10.52;;;15.80;76.40;;;;;;5032728;28;20040;-37
2021/07/20 05:49:47;;;;;;;17.38;10.30;;;16.20;74.50;;;;;;5032917;28;20030;-37
2021/07/20 05:52:15;;;;;;;17.15;10.65;;;16.10;74.50;;;;;;5032850;28;20021;-37
2021/07/20 05:54:43;;;;;;;15.18;8.93;;;16.10;74.60;;;;;;5032445;28;20060;-37
2021/07/20 05:57:10;;;;;;;16.17;8.93;;;16.30;73.60;;;;;;5032531;28;20083;-37
2021/07/20 05:59:40;;;;;;;12.30;7.28;;;16.40;73.20;;;;;;5032762;28;20033;-37
2021/07/20 06:02:09;;;;;;;15.93;8.77;;;16.50;72.40;;;;;;5035233;28;20047;-44
2021/07/20 06:04:36;;;;;;;17.95;9.05;;;16.50;72.60;;;;;;5036900;28;20509;-37
2021/07/20 06:07:04;;;;;;;14.50;8.25;;;16.70;71.90;;;;;;5036365;28;20022;-37
2021/07/20 06:09:31;;;;;;;14.70;7.70;;;16.80;71.20;;;;;;5036729;28;20481;-40
2021/07/20 06:11:58;;;;;;;15.23;8.05;;;16.90;70.80;;;;;;5036497;28;20436;-36
2021/07/20 06:14:24;;;;;;;13.45;8.02;;;16.90;70.40;;;;;;5037000;28;20105;-37
2021/07/20 06:16:50;;;;;;;15.00;7.65;;;17.00;70.40;;;;;;5036734;28;20021;-37
2021/07/20 06:19:16;;;;;;;9.70;6.60;;;17.20;69.20;;;;;;5035037;28;20432;-37
2021/07/20 06:21:43;;;;;;;13.45;7.82;;;17.40;68.00;;;;;;5036274;28;20021;-37
2021/07/20 06:24:11;;;;;;;16.92;7.07;;;17.50;66.80;;;;;;5036496;28;20108;-37
2021/07/20 06:26:38;;;;;;;11.57;6.55;;;17.60;65.70;;;;;;5036110;28;20049;-37
2021/07/20 06:29:09;;;;;;;20.35;6.80;;;17.70;65.90;;;;;;5037597;28;20105;-36
2021/07/20 06:31:40;;;;;;;12.55;6.90;;;17.70;65.40;;;;;;5037826;28;20021;-37
2021/07/20 06:34:07;;;;;;;12.73;7.80;;;17.90;64.20;;;;;;5036899;28;20373;-37
2021/07/20 06:36:37;;;;;;;10.73;5.55;;;18.20;63.10;;;;;;5036178;28;20215;-39
2021/07/20 06:39:05;;;;;;;;;;;18.30;62.50;;;;;;5035064;28;20030;-36
2021/07/20 06:41:35;;;;;;;11.68;6.53;;;17.90;62.30;;;;;;5036546;28;19905;-37
2021/07/20 06:44:03;;;;;;;17.60;7.55;;;17.80;63.80;;;;;;5036134;28;20108;-38
2021/07/20 06:46:29;;;;;;;14.00;7.32;;;17.70;63.80;;;;;;5035608;28;20127;-36
2021/07/20 06:48:55;;;;;;;14.35;8.13;;;17.60;63.30;;;;;;5034294;28;20033;-36
2021/07/20 06:51:22;;;;;;;13.90;5.93;;;17.60;63.40;;;;;;5035455;28;20532;-36
2021/07/20 06:53:48;;;;;;;13.90;7.32;;;17.70;62.40;;;;;;5035528;28;20125;-36
2021/07/20 06:56:36;;;;;;;11.15;5.72;;;17.90;61.40;;;;;;5034529;28;20152;-36
2021/07/20 06:59:03;;;;;;;10.85;6.40;;;18.30;60.20;;;;;;5033824;28;20026;-37
2021/07/20 07:01:31;;;;;;;10.20;5.95;;;18.20;61.10;;;;;;5036001;28;20539;-37
2021/07/20 07:04:07;;;;;;;11.25;6.45;;;18.30;59.00;;;;;;5035267;28;20067;-36
2021/07/20 07:06:36;;;;;;;13.35;6.32;;;18.00;59.70;;;;;;5034435;28;20461;-39
2021/07/20 07:09:03;;;;;;;10.63;6.80;;;17.90;59.90;;;;;;5034954;28;20091;-37
2021/07/20 07:11:30;;;;;;;9.15;5.88;;;17.80;60.30;;;;;;5032556;28;20052;-38
2021/07/20 07:13:56;;;;;;;12.23;6.03;;;17.90;60.00;;;;;;5035605;28;20018;-40
2021/07/20 07:16:23;;;;;;;12.35;7.35;;;18.10;60.00;;;;;;5035007;28;20379;-37
2021/07/20 07:18:49;;;;;;;10.48;5.60;;;17.90;60.80;;;;;;5036169;28;20033;-37
2021/07/20 07:21:16;;;;;;;14.75;7.38;;;17.90;60.60;;;;;;5034834;28;20492;-37
2021/07/20 07:23:43;;;;;;;16.30;7.95;;;18.20;59.90;;;;;;5035146;28;20021;-37
2021/07/20 07:26:13;;;;;;;12.43;6.55;;;18.60;59.00;;;;;;5034533;28;20482;-36
2021/07/20 07:28:40;;;;;;;12.85;7.85;;;18.80;57.90;;;;;;5035599;28;20018;-37
2021/07/20 07:31:09;;;;;;;10.65;6.75;;;19.00;57.60;;;;;;5035194;28;20048;-37
2021/07/20 07:33:35;;;;;;;12.90;6.97;;;19.10;57.50;;;;;;5034440;28;20018;-37
2021/07/20 07:36:01;;;;;;;12.85;6.47;;;18.70;57.30;;;;;;5034493;28;20496;-37
2021/07/20 07:38:27;;;;;;;14.05;7.15;;;18.70;58.20;;;;;;5034335;28;20037;-37
2021/07/20 07:40:55;;;;;;;11.63;6.30;;;18.60;57.60;;;;;;5034507;28;20036;-37
2021/07/20 07:43:23;;;;;;;14.98;6.88;;;18.70;57.90;;;;;;5033030;28;20094;-37
2021/07/20 07:45:51;;;;;;;13.48;7.22;;;18.60;57.80;;;;;;5034829;28;20029;-36
2021/07/20 07:48:17;;;;;;;11.20;7.15;;;18.80;57.30;;;;;;5034865;28;20128;-36
2021/07/20 07:50:43;;;;;;;15.80;6.93;;;18.70;57.20;;;;;;5032807;28;20029;-37
2021/07/20 07:53:10;;;;;;;11.98;7.15;;;18.70;56.90;;;;;;5034682;28;20026;-36
2021/07/20 07:55:36;;;;;;;14.27;7.53;;;19.00;56.60;;;;;;5035423;28;20032;-37
2021/07/20 07:58:04;;;;;;;13.02;8.02;;;18.80;56.30;;;;;;5037784;28;20500;-38
2021/07/20 08:00:31;;;;;;;13.93;7.97;;;19.10;56.40;;;;;;5036343;28;20086;-37
2021/07/20 08:03:01;;;;;;;13.48;8.35;;;19.30;55.60;;;;;;5038467;28;20070;-42
2021/07/20 08:05:27;;;;;;;13.90;7.70;;;19.70;55.20;;;;;;5037152;28;20052;-37
2021/07/20 08:07:54;;;;;;;15.23;9.10;;;19.80;55.10;;;;;;5034467;28;20457;-38
2021/07/20 08:10:22;;;;;;;10.48;6.60;;;19.80;53.50;;;;;;5034525;28;20045;-37
2021/07/20 08:12:49;;;;;;;10.93;7.28;;;20.30;52.20;;;;;;5034273;28;20025;-37
2021/07/20 08:15:15;;;;;;;11.98;7.82;;;20.60;51.10;;;;;;5034092;28;20048;-37
2021/07/20 08:17:43;;;;;;;12.32;7.45;;;20.40;51.30;;;;;;5034882;28;20036;-37
2021/07/20 08:20:12;;;;;;;11.63;7.05;;;20.90;50.50;;;;;;5034237;28;20038;-37
2021/07/20 08:22:38;;;;;;;12.93;7.03;;;21.20;49.90;;;;;;5034115;28;20077;-37
2021/07/20 08:25:15;;;;;;;12.88;7.45;;;20.30;51.80;;;;;;5034202;28;20056;-40
2021/07/20 08:27:44;;;;;;;10.10;6.53;;;20.10;53.00;;;;;;5033640;28;20053;-40
2021/07/20 08:30:10;;;;;;;13.60;8.43;;;20.30;52.40;;;;;;5033073;28;20033;-37
2021/07/20 08:32:52;;;;;;;11.85;7.25;;;21.30;50.70;;;;;;5033432;28;20070;-37
2021/07/20 08:35:27;;;;;;;10.45;7.45;;;21.40;49.20;;;;;;5032253;28;20220;-37
2021/07/20 08:37:58;;;;;;;13.10;7.63;;;21.40;48.60;;;;;;5033989;28;20029;-36
2021/07/20 08:40:51;;;;;;;26.70;15.45;;;21.30;48.90;;;;;;5032837;28;20060;-37
2021/07/20 08:43:25;;;;;;;9.70;7.00;;;20.40;50.90;;;;;;5033239;28;20025;-37
2021/07/20 08:46:09;;;;;;;15.05;8.90;;;20.70;50.60;;;;;;5033953;28;20401;-37
2021/07/20 08:48:50;;;;;;;15.25;7.95;;;20.90;50.70;;;;;;5032041;28;20083;-36
2021/07/20 08:51:18;;;;;;;;;;;21.00;49.30;;;;;;5034382;28;20382;-37
2021/07/20 08:54:00;;;;;;;11.82;7.70;;;20.80;49.30;;;;;;5033425;28;19955;-36
2021/07/20 08:56:27;;;;;;;12.43;6.80;;;20.90;49.70;;;;;;5033578;28;20402;-36
2021/07/20 08:59:02;;;;;;;8.63;6.28;;;20.70;50.00;;;;;;5033388;28;20493;-37
2021/07/20 09:01:44;;;;;;;12.07;7.40;;;20.00;51.60;;;;;;5033855;28;20370;-37
2021/07/20 09:04:22;;;;;;;11.18;7.25;;;19.90;51.50;;;;;;5033281;28;20075;-37
2021/07/20 09:06:53;;;;;;;11.57;7.53;;;20.10;51.20;;;;;;5033138;28;20087;-36
2021/07/20 09:09:27;;;;;;;13.18;8.27;;;20.20;51.50;;;;;;5032919;28;20449;-37
2021/07/20 09:12:04;;;;;;;14.20;7.20;;;20.50;50.90;;;;;;5016374;28;20102;-37
2021/07/20 09:14:33;;;;;;;11.80;8.13;;;21.10;49.10;;;;;;5033947;28;20034;-37
2021/07/20 09:17:11;;;;;;;13.93;6.70;;;20.80;49.20;;;;;;5033903;28;20090;-36
2021/07/20 09:20:08;;;;;;;11.82;7.53;;;20.70;48.90;;;;;;5032855;28;20021;-36
2021/07/20 09:22:35;;;;;;;15.10;8.13;;;20.80;47.90;;;;;;5032670;28;20037;-36
2021/07/20 09:25:04;;;;;;;9.40;7.07;;;21.20;47.30;;;;;;5032285;28;20025;-36
2021/07/20 09:27:41;;;;;;;14.10;7.82;;;21.20;47.40;;;;;;5032760;28;20068;-48
2021/07/20 09:30:13;;;;;;;10.50;6.80;;;21.60;46.80;;;;;;5032759;28;20029;-47
2021/07/20 09:33:05;;;;;;;10.68;6.40;;;22.80;42.60;;;;;;5032587;28;20018;-46
2021/07/20 09:35:49;;;;;;;8.77;6.65;;;24.40;38.90;;;;;;5030237;28;20033;-47
2021/07/20 09:38:30;;;;;;;10.65;7.32;;;23.50;40.00;;;;;;5032437;28;20068;-51
2021/07/20 09:41:23;;;;;;;12.55;7.85;;;22.60;43.40;;;;;;5031143;28;20088;-49
2021/07/20 09:43:53;;;;;;;12.23;8.23;;;21.80;46.50;;;;;;5032381;28;20043;-48
2021/07/20 09:46:34;;;;;;;13.57;7.53;;;21.00;48.50;;;;;;5031186;28;20036;-64
2021/07/20 09:49:05;;;;;;;12.73;8.60;;;20.40;50.50;;;;;;5032356;28;20033;-49
2021/07/20 09:51:30;;;;;;;;;;;20.20;51.90;;;;;;5033157;28;20017;-51
2021/07/20 09:54:47;;;;;;;12.55;7.60;;;20.10;51.70;;;;;;5032518;28;19904;-51
2021/07/20 09:57:42;;;;;;;11.20;7.95;;;20.20;51.00;;;;;;5049908;28;20040;-49
2021/07/20 10:00:18;;;;;;;11.18;6.22;;;20.40;50.70;;;;;;5032597;28;20021;-49
2021/07/20 10:03:04;;;;;;;11.20;7.47;;;20.40;50.00;;;;;;5032559;28;20108;-49
2021/07/20 10:05:34;;;;;;;10.27;7.18;;;20.60;49.70;;;;;;5032707;28;20017;-48
2021/07/20 10:08:04;;;;;;;10.80;6.87;;;20.80;48.40;;;;;;5030644;28;20029;-50
2021/07/20 10:10:47;;;;;;;14.65;7.18;;;21.00;48.30;;;;;;5031722;28;20429;-49
2021/07/20 10:13:30;;;;;;;11.10;6.72;;;20.60;49.00;;;;;;5032365;28;20128;-48
2021/07/20 10:16:31;;;;;;;14.57;8.02;;;20.60;49.00;;;;;;5032136;28;20017;-53
2021/07/20 10:19:07;;;;;;;9.95;6.43;;;21.00;48.60;;;;;;5032268;28;20033;-52
2021/07/20 10:21:37;;;;;;;13.38;8.25;;;21.00;48.30;;;;;;5032543;28;20026;-52
2021/07/20 10:24:09;;;;;;;11.18;6.93;;;20.70;48.80;;;;;;5031060;28;20176;-51
2021/07/20 10:27:13;;;;;;;13.70;7.68;;;20.70;49.10;;;;;;5032250;28;20533;-54
2021/07/20 10:29:48;;;;;;;9.40;6.88;;;21.90;45.40;;;;;;5032132;28;20040;-48
2021/07/20 10:32:47;;;;;;;12.10;7.15;;;22.70;43.60;;;;;;5032604;28;20116;-47
2021/07/20 10:35:42;;;;;;;13.07;7.57;;;23.40;41.30;;;;;;5032354;28;20461;-48
2021/07/20 10:38:13;;;;;;;12.38;7.10;;;23.90;39.60;;;;;;5032875;28;20041;-52
2021/07/20 10:40:41;;;;;;;8.60;6.93;;;23.80;39.90;;;;;;5031441;28;20035;-51
2021/07/20 10:43:30;;;;;;;11.32;6.45;;;24.40;38.80;;;;;;5032557;28;20036;-47
2021/07/20 10:45:57;;;;;;;8.27;6.28;;;24.20;38.80;;;;;;5032419;28;20466;-48
2021/07/20 10:48:32;;;;;;;9.73;7.00;;;25.00;37.10;;;;;;5034750;28;20029;-51
2021/07/20 10:51:11;;;;;;;14.65;7.32;;;25.70;35.80;;;;;;5035920;28;20025;-48
2021/07/20 10:53:49;;;;;;;9.65;6.80;;;25.80;35.70;;;;;;5035913;28;20053;-50
2021/07/20 10:56:30;;;;;;;10.65;7.03;;;25.70;36.30;;;;;;5035128;28;20437;-48
2021/07/20 10:59:10;;;;;;;10.15;6.03;;;23.20;41.10;;;;;;5035696;28;20029;-50
2021/07/20 11:01:54;;;;;;;13.70;7.13;;;21.80;44.30;;;;;;5035658;28;20044;-48
2021/07/20 11:04:40;;;;;;;8.77;6.63;;;21.90;44.70;;;;;;5035406;28;20033;-49
2021/07/20 11:07:09;;;;;;;13.73;7.00;;;23.30;41.40;;;;;;5035698;28;20025;-49
2021/07/20 11:09:38;;;;;;;14.75;6.32;;;23.50;39.90;;;;;;5034984;28;20059;-50
2021/07/20 11:12:06;;;;;;;9.13;6.43;;;24.20;38.60;;;;;;5034664;28;20097;-49
2021/07/20 11:14:46;;;;;;;9.95;6.30;;;24.20;38.40;;;;;;5033839;28;20025;-49
2021/07/20 11:17:14;;;;;;;9.18;6.78;;;25.20;36.60;;;;;;5035161;28;20033;-49
2021/07/20 11:19:43;;;;;;;8.63;6.50;;;26.30;35.10;;;;;;5034954;28;20030;-48
2021/07/20 11:22:10;;;;;;;10.70;6.97;;;25.60;36.60;;;;;;5035095;28;20448;-52
2021/07/20 11:24:36;;;;;;;8.38;5.75;;;25.60;36.40;;;;;;5033713;28;20115;-49
2021/07/20 11:27:02;;;;;;;10.13;6.97;;;25.30;36.90;;;;;;5033288;28;20046;-49
2021/07/20 11:29:32;;;;;;;9.60;6.75;;;25.40;36.50;;;;;;5034570;28;20393;-50
2021/07/20 11:32:05;;;;;;;10.82;6.85;;;25.80;35.30;;;;;;5035044;28;20043;-50
2021/07/20 11:34:36;;;;;;;9.85;6.38;;;26.30;34.80;;;;;;5034657;28;20453;-51
2021/07/20 11:37:06;;;;;;;9.15;6.07;;;26.90;34.10;;;;;;5034820;28;20104;-53
2021/07/20 11:39:39;;;;;;;8.80;6.65;;;27.50;33.30;;;;;;5034928;28;20052;-48
2021/07/20 11:42:14;;;;;;;7.80;6.05;;;25.10;36.40;;;;;;5034755;28;20026;-47
2021/07/20 11:44:53;;;;;;;10.10;6.50;;;24.80;37.00;;;;;;5034363;28;20038;-51
2021/07/20 11:47:34;;;;;;;12.48;6.80;;;24.30;38.30;;;;;;5034336;28;20507;-49
2021/07/20 11:50:02;;;;;;;14.80;6.28;;;24.40;39.10;;;;;;5034641;28;20448;-50
2021/07/20 11:52:57;;;;;;;9.10;6.00;;;25.40;37.00;;;;;;5034530;28;20033;-50
2021/07/20 11:55:39;;;;;;;12.27;6.32;;;26.00;36.10;;;;;;5042171;28;20038;-52
2021/07/20 11:58:36;;;;;;;9.07;6.50;;;26.30;35.10;;;;;;5034510;28;20037;-53
2021/07/20 12:01:30;;;;;;;7.85;5.68;;;25.60;36.40;;;;;;5034143;28;20169;-53
2021/07/20 12:04:14;;;;;;;10.95;6.47;;;24.80;37.20;;;;;;5034171;28;20057;-49
2021/07/20 12:06:57;;;;;;;8.40;6.18;;;24.80;37.10;;;;;;5034167;28;20035;-53
2021/07/20 12:09:30;;;;;;;10.68;7.47;;;25.50;36.90;;;;;;5032775;28;20082;-48
2021/07/20 12:11:56;;;;;;;7.78;5.93;;;25.50;36.00;;;;;;5032658;28;20022;-51
2021/07/20 12:14:22;;;;;;;12.10;6.03;;;25.50;36.30;;;;;;5034475;28;20051;-51
2021/07/20 12:16:52;;;;;;;6.93;5.28;;;25.90;35.70;;;;;;5034071;28;20029;-49
2021/07/20 12:19:45;;;;;;;11.20;5.65;;;25.50;37.00;;;;;;5033872;28;20021;-49
2021/07/20 12:22:11;;;;;;;8.18;5.63;;;25.40;36.60;;;;;;5034091;28;20038;-50
2021/07/20 12:24:37;;;;;;;7.97;5.32;;;23.90;40.10;;;;;;5034032;28;20044;-51
2021/07/20 12:27:07;;;;;;;8.70;5.40;;;23.70;40.60;;;;;;5032537;28;20065;-53
2021/07/20 12:29:42;;;;;;;10.25;5.43;;;25.00;37.60;;;;;;5033747;28;20377;-49
2021/07/20 12:32:15;;;;;;;11.38;5.63;;;26.00;36.00;;;;;;5033982;28;20550;-53
2021/07/20 12:34:42;;;;;;;9.02;5.60;;;27.20;34.50;;;;;;5032306;28;20021;-52
2021/07/20 12:37:09;;;;;;;9.07;5.20;;;26.70;34.10;;;;;;5033935;28;20096;-49
2021/07/20 12:39:39;;;;;;;10.27;5.85;;;26.90;33.10;;;;;;5032104;28;20106;-50
2021/07/20 12:42:04;;;;;;;7.65;5.15;;;26.50;34.80;;;;;;5033976;28;20029;-51
2021/07/20 12:44:31;;;;;;;10.13;6.22;;;27.30;33.10;;;;;;5033619;28;20156;-49
2021/07/20 12:47:13;;;;;;;7.43;5.57;;;27.20;33.20;;;;;;5032165;28;20025;-49
2021/07/20 12:49:44;;;;;;;8.32;5.50;;;26.60;34.70;;;;;;5032348;28;20029;-51
2021/07/20 12:52:09;;;;;;;11.82;6.10;;;25.00;37.60;;;;;;5033629;28;20424;-49
2021/07/20 12:54:41;;;;;;;8.23;6.03;;;24.80;38.10;;;;;;5032251;28;20078;-50
2021/07/20 12:57:09;;;;;;;9.32;7.00;;;25.40;36.80;;;;;;5032869;28;20060;-47